Time;durP1;ratioP1;P1;durP2;ratioP2;P2;SDS_P1;SDS_P2;PMS_P1;PMS_P2;Temp;Humidity;BMP_temperature;BMP_pressure;BME280_temperature;BME280_humidity;BME280_pressure;Samples;Min_cycle;Max_cycle;Signal;HPM_P1;HPM_P2
2024/01/21 00:00:46;;;;;;;;;;;-0.50;99.90;;;;;;5071386;28;19974;-65
2024/01/21 00:03:11;;;;;;;;;;;-0.60;99.90;;;;;;5072077;28;19956;-65
2024/01/21 00:05:37;;;;;;;;;;;-0.60;99.90;;;;;;5071144;28;19916;-65
2024/01/21 00:08:03;;;;;;;;;;;-0.60;99.90;;;;;;5070651;28;19924;-66
2024/01/21 00:10:28;;;;;;;;;;;-0.60;99.90;;;;;;5069404;28;19952;-65
2024/01/21 00:12:54;;;;;;;;;;;-0.60;99.90;;;;;;5067743;28;20392;-65
2024/01/21 00:15:22;;;;;;;;;;;-0.60;99.90;;;;;;5069544;28;19963;-65
2024/01/21 00:17:47;;;;;;;;;;;-0.60;99.90;;;;;;5076963;28;19962;-65
2024/01/21 00:20:13;;;;;;;;;;;-0.60;99.90;;;;;;5078458;28;19971;-65
2024/01/21 00:22:40;;;;;;;;;;;-0.50;99.90;;;;;;5071849;28;19970;-65
2024/01/21 00:25:06;;;;;;;;;;;-0.50;99.90;;;;;;5072409;28;19916;-65
2024/01/21 00:27:32;;;;;;;;;;;-0.50;99.90;;;;;;5079214;28;19974;-65
2024/01/21 00:29:57;;;;;;;;;;;-0.50;99.90;;;;;;5075863;28;20304;-65
2024/01/21 00:32:23;;;;;;;;;;;-0.50;99.90;;;;;;5069374;28;19923;-65
2024/01/21 00:34:48;;;;;;;;;;;-0.50;99.90;;;;;;5073595;28;20425;-65
2024/01/21 00:37:14;;;;;;;;;;;-0.50;99.90;;;;;;5075482;28;19921;-65
2024/01/21 00:39:40;;;;;;;;;;;-0.50;99.90;;;;;;5076232;28;20392;-65
2024/01/21 00:42:05;;;;;;;;;;;-0.50;99.90;;;;;;5075691;28;20413;-65
2024/01/21 00:44:31;;;;;;;;;;;-0.50;99.90;;;;;;5076149;28;19921;-65
2024/01/21 00:46:56;;;;;;;;;;;-0.50;99.90;;;;;;5075643;28;19925;-65
2024/01/21 00:49:22;;;;;;;;;;;-0.60;99.90;;;;;;5081485;28;19948;-66
2024/01/21 00:51:48;;;;;;;;;;;-0.50;99.90;;;;;;5075928;28;19917;-65
2024/01/21 00:54:13;;;;;;;;;;;-0.50;99.90;;;;;;5074195;28;19917;-65
2024/01/21 00:56:39;;;;;;;;;;;-0.50;99.90;;;;;;5082942;28;19964;-65
2024/01/21 00:59:04;;;;;;;;;;;-0.50;99.90;;;;;;5075291;28;19931;-65
2024/01/21 01:01:30;;;;;;;;;;;-0.50;99.90;;;;;;5077315;28;19923;-65
2024/01/21 01:03:56;;;;;;;;;;;-0.50;99.90;;;;;;5058277;28;20044;-65
2024/01/21 01:06:21;;;;;;;;;;;-0.50;99.90;;;;;;5059302;28;19928;-65
2024/01/21 01:08:47;;;;;;;;;;;-0.50;99.90;;;;;;5075317;28;20269;-65
2024/01/21 01:11:13;;;;;;;;;;;-0.50;99.90;;;;;;5071271;28;19920;-65
2024/01/21 01:13:38;;;;;;;;;;;-0.50;99.90;;;;;;5076036;28;19917;-65
2024/01/21 01:16:06;;;;;;;;;;;-0.50;99.90;;;;;;5070856;28;19916;-65
2024/01/21 01:18:31;;;;;;;;;;;-0.50;99.90;;;;;;5073799;28;20045;-65
2024/01/21 01:20:57;;;;;;;;;;;-0.50;99.90;;;;;;5073804;28;20011;-65
2024/01/21 01:23:23;;;;;;;;;;;-0.50;99.90;;;;;;5076197;28;20369;-65
2024/01/21 01:25:48;;;;;;;;;;;-0.40;99.90;;;;;;5071931;28;19993;-65
2024/01/21 01:28:14;;;;;;;;;;;-0.30;99.90;;;;;;5078654;28;19923;-65
2024/01/21 01:30:40;;;;;;;;;;;-0.40;99.90;;;;;;5069597;28;19916;-65
2024/01/21 01:33:06;;;;;;;;;;;-0.30;99.90;;;;;;5080406;28;20443;-65
2024/01/21 01:35:31;;;;;;;;;;;-0.30;99.90;;;;;;5076198;28;19916;-65
2024/01/21 01:37:57;;;;;;;;;;;-0.20;99.90;;;;;;5074886;28;20393;-65
2024/01/21 01:40:23;;;;;;;;;;;-0.20;99.90;;;;;;5074081;28;19916;-65
2024/01/21 01:42:52;;;;;;;;;;;-0.20;99.90;;;;;;5074453;28;19925;-65
2024/01/21 01:45:18;;;;;;;;;;;-0.20;99.90;;;;;;5074096;28;19916;-65
2024/01/21 01:47:43;;;;;;;;;;;-0.10;99.90;;;;;;5073317;28;19934;-65
2024/01/21 01:50:09;;;;;;;;;;;-0.10;99.90;;;;;;5075289;28;19999;-65
2024/01/21 01:52:34;;;;;;;;;;;-0.10;99.90;;;;;;5077297;28;19927;-65
2024/01/21 01:55:00;;;;;;;;;;;-0.10;99.90;;;;;;5069145;28;20380;-65
2024/01/21 01:57:26;;;;;;;;;;;-0.10;99.90;;;;;;5070216;28;20293;-65
2024/01/21 01:59:51;;;;;;;;;;;0.00;99.90;;;;;;5076816;28;19977;-65
2024/01/21 02:02:17;;;;;;;;;;;-0.10;99.90;;;;;;5072197;28;19920;-65
2024/01/21 02:04:43;;;;;;;;;;;-0.10;99.90;;;;;;5077053;28;19970;-65
2024/01/21 02:07:09;;;;;;;;;;;0.00;99.90;;;;;;5078166;28;20525;-65
2024/01/21 02:09:35;;;;;;;;;;;0.00;99.90;;;;;;5076900;28;20370;-65
2024/01/21 02:12:00;;;;;;;;;;;0.00;99.90;;;;;;5074053;28;19917;-65
2024/01/21 02:14:26;;;;;;;;;;;0.00;99.90;;;;;;5059321;28;20297;-65
2024/01/21 02:16:51;;;;;;;;;;;0.10;99.90;;;;;;5077473;28;19916;-65
2024/01/21 02:19:27;;;;;;;;;;;0.10;99.90;;;;;;5074994;28;19916;-65
2024/01/21 02:21:53;;;;;;;;;;;0.10;99.90;;;;;;5073345;28;19924;-65
2024/01/21 02:24:19;;;;;;;;;;;0.20;99.90;;;;;;5069904;28;19923;-65
2024/01/21 02:26:44;;;;;;;;;;;0.20;99.90;;;;;;5071022;28;20168;-65
2024/01/21 02:29:10;;;;;;;;;;;0.20;99.90;;;;;;5076490;28;19922;-65
2024/01/21 02:31:36;;;;;;;;;;;0.20;99.90;;;;;;5082033;28;20013;-65
2024/01/21 02:34:01;;;;;;;;;;;0.30;99.90;;;;;;5076955;28;19920;-66
2024/01/21 02:36:27;;;;;;;;;;;0.30;99.90;;;;;;5072645;28;19924;-65
2024/01/21 02:38:52;;;;;;;;;;;0.40;99.90;;;;;;5071403;28;20290;-65
2024/01/21 02:41:18;;;;;;;;;;;0.40;99.90;;;;;;5072558;28;20288;-65
2024/01/21 02:43:44;;;;;;;;;;;0.40;99.90;;;;;;5079458;28;19957;-65
2024/01/21 02:46:09;;;;;;;;;;;0.30;99.90;;;;;;5071281;28;19927;-65
2024/01/21 02:48:35;;;;;;;;;;;0.40;99.90;;;;;;5076755;28;19926;-65
2024/01/21 02:51:00;;;;;;;;;;;0.40;99.90;;;;;;5077191;28;20326;-66
2024/01/21 02:53:26;;;;;;;;;;;0.40;99.60;;;;;;5079773;28;19916;-65
2024/01/21 02:55:51;;;;;;;;;;;0.40;99.60;;;;;;5070951;28;19927;-66
2024/01/21 02:58:17;;;;;;;;;;;0.30;99.90;;;;;;5076148;28;19916;-65
2024/01/21 03:00:43;;;;;;;;;;;0.40;99.90;;;;;;5067488;28;20424;-65
2024/01/21 03:03:10;;;;;;;;;;;0.30;99.90;;;;;;5076029;28;19916;-65
2024/01/21 03:05:36;;;;;;;;;;;0.30;99.80;;;;;;5073381;28;19916;-65
2024/01/21 03:08:02;;;;;;;;;;;0.30;99.90;;;;;;5075005;28;19943;-65
2024/01/21 03:10:27;;;;;;;;;;;0.40;99.60;;;;;;5074409;28;19916;-65
2024/01/21 03:12:53;;;;;;;;;;;0.50;98.50;;;;;;5070611;28;19916;-65
2024/01/21 03:15:18;;;;;;;;;;;0.50;98.70;;;;;;5071464;28;20381;-65
2024/01/21 03:17:44;;;;;;;;;;;0.40;98.90;;;;;;5073808;28;20456;-65
2024/01/21 03:20:10;;;;;;;;;;;0.40;99.30;;;;;;5075881;28;20092;-66
2024/01/21 03:22:35;;;;;;;;;;;0.40;98.90;;;;;;5071705;28;19938;-66
2024/01/21 03:25:01;;;;;;;;;;;0.40;98.30;;;;;;5073082;28;20223;-65
2024/01/21 03:27:27;;;;;;;;;;;0.50;98.60;;;;;;5077959;28;19920;-65
2024/01/21 03:29:52;;;;;;;;;;;0.40;98.30;;;;;;5079186;28;19916;-65
2024/01/21 03:32:18;;;;;;;;;;;0.40;97.90;;;;;;5080400;28;20376;-65
2024/01/21 03:34:44;;;;;;;;;;;0.50;97.70;;;;;;5079369;28;19916;-65
2024/01/21 03:37:10;;;;;;;;;;;0.50;98.50;;;;;;5064117;28;20376;-65
2024/01/21 03:39:36;;;;;;;;;;;0.50;97.60;;;;;;5081076;28;19943;-65
2024/01/21 03:42:01;;;;;;;;;;;0.50;97.30;;;;;;5075653;28;19931;-65
2024/01/21 03:44:27;;;;;;;;;;;0.60;97.40;;;;;;5086857;28;20375;-65
2024/01/21 03:46:52;;;;;;;;;;;0.60;96.80;;;;;;5082281;28;19950;-66
2024/01/21 03:49:18;;;;;;;;;;;0.60;97.40;;;;;;5075843;28;19970;-65
2024/01/21 03:51:44;;;;;;;;;;;0.60;96.70;;;;;;5084218;28;19956;-66
2024/01/21 03:54:09;;;;;;;;;;;0.70;96.30;;;;;;5082971;28;20292;-65
2024/01/21 03:56:35;;;;;;;;;;;0.60;96.80;;;;;;5081094;28;19920;-65
2024/01/21 03:59:00;;;;;;;;;;;0.60;96.10;;;;;;5078825;28;20442;-65
2024/01/21 04:01:26;;;;;;;;;;;0.60;95.80;;;;;;5083115;28;19998;-65
2024/01/21 04:03:52;;;;;;;;;;;0.70;95.90;;;;;;5084402;28;20446;-65
2024/01/21 04:06:17;;;;;;;;;;;0.70;95.40;;;;;;5075586;28;20463;-65
2024/01/21 04:08:43;;;;;;;;;;;0.70;95.60;;;;;;5081316;28;19923;-65
2024/01/21 04:11:09;;;;;;;;;;;0.70;95.50;;;;;;5079946;28;20384;-65
2024/01/21 04:13:34;;;;;;;;;;;0.70;95.40;;;;;;5078013;28;20007;-65
2024/01/21 04:16:00;;;;;;;;;;;0.70;94.70;;;;;;5086532;28;20008;-65
2024/01/21 04:18:26;;;;;;;;;;;0.80;94.40;;;;;;5079105;28;20406;-66
2024/01/21 04:20:51;;;;;;;;;;;0.90;94.30;;;;;;5078909;28;19916;-65
2024/01/21 04:23:17;;;;;;;;;;;0.90;95.20;;;;;;5079318;28;19955;-65
2024/01/21 04:25:42;;;;;;;;;;;0.90;94.80;;;;;;5076058;28;20382;-65
2024/01/21 04:28:08;;;;;;;;;;;1.00;93.90;;;;;;5073340;28;20373;-65
2024/01/21 04:30:35;;;;;;;;;;;0.90;94.40;;;;;;5081253;28;19923;-65
2024/01/21 04:33:01;;;;;;;;;;;0.90;94.10;;;;;;5078508;28;19922;-65
2024/01/21 04:35:27;;;;;;;;;;;0.90;94.00;;;;;;5080003;28;19931;-65
2024/01/21 04:37:52;;;;;;;;;;;0.90;94.50;;;;;;5074923;28;19920;-65
2024/01/21 04:40:18;;;;;;;;;;;0.90;94.80;;;;;;5073222;28;19923;-65
2024/01/21 04:42:44;;;;;;;;;;;0.90;94.20;;;;;;5072074;28;20405;-65
2024/01/21 04:45:09;;;;;;;;;;;0.90;94.70;;;;;;5072404;28;19927;-65
2024/01/21 04:47:35;;;;;;;;;;;0.90;94.90;;;;;;5084392;28;20479;-65
2024/01/21 04:50:01;;;;;;;;;;;0.80;95.30;;;;;;5082707;28;20010;-65
2024/01/21 04:52:27;;;;;;;;;;;0.80;95.00;;;;;;5080280;28;19920;-65
2024/01/21 04:54:53;;;;;;;;;;;0.80;95.30;;;;;;5080980;28;19991;-65
2024/01/21 04:57:18;;;;;;;;;;;0.80;95.10;;;;;;5078504;28;19923;-65
2024/01/21 04:59:44;;;;;;;;;;;0.80;94.40;;;;;;5053020;28;19920;-65
2024/01/21 05:02:10;;;;;;;;;;;0.80;95.30;;;;;;5080945;28;20317;-65
2024/01/21 05:04:35;;;;;;;;;;;0.80;94.60;;;;;;5082511;28;20249;-65
2024/01/21 05:07:01;;;;;;;;;;;0.80;94.10;;;;;;5078010;28;20320;-65
2024/01/21 05:09:26;;;;;;;;;;;0.90;93.60;;;;;;5075272;28;19917;-65
2024/01/21 05:11:52;;;;;;;;;;;0.80;94.80;;;;;;5080564;28;19923;-65
2024/01/21 05:14:18;;;;;;;;;;;0.80;94.50;;;;;;5079531;28;19962;-65
2024/01/21 05:16:43;;;;;;;;;;;0.90;93.70;;;;;;5082540;28;20454;-66
2024/01/21 05:19:09;;;;;;;;;;;0.90;94.40;;;;;;5039466;28;19977;-65
2024/01/21 05:21:34;;;;;;;;;;;0.90;94.00;;;;;;5082297;28;19916;-65
2024/01/21 05:24:00;;;;;;;;;;;0.90;93.50;;;;;;5076350;28;20293;-65
2024/01/21 05:26:26;;;;;;;;;;;0.90;94.20;;;;;;5081395;28;20304;-65
2024/01/21 05:28:54;;;;;;;;;;;0.80;94.40;;;;;;5083196;28;19985;-65
2024/01/21 05:31:20;;;;;;;;;;;0.80;93.90;;;;;;5081040;28;19931;-65
2024/01/21 05:33:46;;;;;;;;;;;0.90;93.90;;;;;;5077709;28;19981;-65
2024/01/21 05:36:12;;;;;;;;;;;0.90;94.40;;;;;;5077948;28;19916;-65
2024/01/21 05:38:38;;;;;;;;;;;0.80;94.70;;;;;;5071975;28;19931;-65
2024/01/21 05:41:05;;;;;;;;;;;0.90;94.00;;;;;;5079025;28;19921;-65
2024/01/21 05:43:30;;;;;;;;;;;0.80;94.60;;;;;;5060445;28;19920;-65
2024/01/21 05:45:56;;;;;;;;;;;0.80;94.10;;;;;;5080861;28;20335;-65
2024/01/21 05:48:22;;;;;;;;;;;0.90;93.50;;;;;;5082381;28;20059;-65
2024/01/21 05:50:47;;;;;;;;;;;0.90;94.10;;;;;;5075661;28;19998;-65
2024/01/21 05:53:13;;;;;;;;;;;1.00;93.30;;;;;;5075046;28;19916;-65
2024/01/21 05:55:38;;;;;;;;;;;1.00;93.70;;;;;;5081506;28;20029;-65
2024/01/21 05:58:04;;;;;;;;;;;1.10;93.90;;;;;;5045414;28;20309;-65
2024/01/21 06:00:30;;;;;;;;;;;1.10;94.00;;;;;;5077261;28;19916;-65
2024/01/21 06:02:55;;;;;;;;;;;1.10;94.20;;;;;;5079645;28;19916;-66
2024/01/21 06:05:21;;;;;;;;;;;1.20;93.20;;;;;;5080610;28;19939;-65
2024/01/21 06:07:47;;;;;;;;;;;1.20;93.30;;;;;;5112487;27;19921;-65
2024/01/21 06:10:13;;;;;;;;;;;1.40;92.90;;;;;;5075563;28;19923;-65
2024/01/21 06:12:39;;;;;;;;;;;1.50;92.10;;;;;;5093791;28;20408;-65
2024/01/21 06:15:04;;;;;;;;;;;1.80;91.70;;;;;;5069711;28;19955;-65
2024/01/21 06:17:30;;;;;;;;;;;1.90;91.80;;;;;;5077536;28;19966;-65
2024/01/21 06:19:56;;;;;;;;;;;2.00;92.10;;;;;;5080240;28;19924;-65
2024/01/21 06:22:22;;;;;;;;;;;2.20;90.60;;;;;;5069666;28;20007;-65
2024/01/21 06:24:49;;;;;;;;;;;2.10;91.80;;;;;;5076363;28;20061;-65
2024/01/21 06:27:14;;;;;;;;;;;2.10;91.40;;;;;;5079766;28;20035;-65
2024/01/21 06:29:42;;;;;;;;;;;2.10;92.00;;;;;;5070255;28;20350;-65
2024/01/21 06:32:08;;;;;;;;;;;2.10;92.00;;;;;;5068187;28;19916;-65
2024/01/21 06:34:34;;;;;;;;;;;2.10;91.80;;;;;;5077940;28;20385;-65
2024/01/21 06:36:59;;;;;;;;;;;2.10;92.00;;;;;;5069523;28;20419;-65
2024/01/21 06:39:25;;;;;;;;;;;2.10;92.60;;;;;;5074297;28;20074;-65
2024/01/21 06:41:51;;;;;;;;;;;2.10;92.00;;;;;;5076332;28;19916;-65
2024/01/21 06:44:16;;;;;;;;;;;2.10;92.00;;;;;;5076973;28;19921;-65
2024/01/21 06:46:42;;;;;;;;;;;2.10;92.00;;;;;;5075902;28;20024;-65
2024/01/21 06:49:08;;;;;;;;;;;2.10;92.00;;;;;;5072475;28;19916;-65
2024/01/21 06:51:42;;;;;;;;;;;2.10;91.60;;;;;;5074165;28;19924;-65
2024/01/21 06:54:09;;;;;;;;;;;2.10;91.40;;;;;;5071436;28;20036;-65
2024/01/21 06:56:34;;;;;;;;;;;2.20;92.20;;;;;;5078683;28;19924;-65
2024/01/21 06:59:00;;;;;;;;;;;2.10;91.90;;;;;;5069975;28;20361;-65
2024/01/21 07:01:26;;;;;;;;;;;2.00;93.10;;;;;;5072701;28;19916;-65
2024/01/21 07:03:52;;;;;;;;;;;2.00;92.40;;;;;;5074228;28;19977;-65
2024/01/21 07:06:17;;;;;;;;;;;1.90;92.50;;;;;;5072236;28;19967;-65
2024/01/21 07:08:43;;;;;;;;;;;2.00;92.80;;;;;;5079017;28;20009;-65
2024/01/21 07:11:09;;;;;;;;;;;1.90;93.00;;;;;;5077413;28;19924;-65
2024/01/21 07:13:35;;;;;;;;;;;2.00;92.50;;;;;;5076524;28;20025;-65
2024/01/21 07:16:01;;;;;;;;;;;2.00;92.70;;;;;;5072394;28;19916;-65
2024/01/21 07:18:26;;;;;;;;;;;2.00;93.40;;;;;;5079123;28;19916;-65
2024/01/21 07:20:52;;;;;;;;;;;2.00;93.40;;;;;;5077335;28;19961;-65
2024/01/21 07:23:17;;;;;;;;;;;2.00;92.80;;;;;;5080898;28;19916;-65
2024/01/21 07:25:43;;;;;;;;;;;2.00;93.00;;;;;;5077638;28;19965;-65
2024/01/21 07:28:09;;;;;;;;;;;1.90;93.40;;;;;;5076162;28;19943;-65
2024/01/21 07:30:34;;;;;;;;;;;1.90;93.80;;;;;;5072740;28;19931;-65
2024/01/21 07:33:00;;;;;;;;;;;1.90;93.70;;;;;;5059499;28;20312;-65
2024/01/21 07:35:25;;;;;;;;;;;1.80;93.50;;;;;;5078499;28;19920;-65
2024/01/21 07:37:51;;;;;;;;;;;1.80;94.20;;;;;;5074872;28;20428;-65
2024/01/21 07:40:17;;;;;;;;;;;1.80;93.80;;;;;;5057693;28;19960;-65
2024/01/21 07:42:43;;;;;;;;;;;1.80;94.10;;;;;;5078027;28;19920;-65
2024/01/21 07:45:09;;;;;;;;;;;1.80;94.40;;;;;;5072050;28;20335;-65
2024/01/21 07:47:35;;;;;;;;;;;1.70;95.60;;;;;;5070967;28;19966;-64
2024/01/21 07:50:00;;;;;;;;;;;1.70;95.60;;;;;;5076654;28;20379;-65
2024/01/21 07:52:26;;;;;;;;;;;1.60;95.60;;;;;;5074620;28;19931;-65
2024/01/21 07:54:52;;;;;;;;;;;1.60;95.50;;;;;;5073709;28;19920;-65
2024/01/21 07:57:17;;;;;;;;;;;1.60;95.20;;;;;;5072629;28;19916;-65
2024/01/21 07:59:43;;;;;;;;;;;1.60;96.20;;;;;;5056118;28;20002;-65
2024/01/21 08:02:08;;;;;;;;;;;1.60;95.80;;;;;;5066693;28;19980;-65
2024/01/21 08:04:34;;;;;;;;;;;1.50;96.60;;;;;;5057496;28;19924;-64
2024/01/21 08:07:00;;;;;;;;;;;1.50;96.40;;;;;;5069706;28;19935;-64
2024/01/21 08:09:26;;;;;;;;;;;1.50;96.30;;;;;;5070554;28;19925;-64
2024/01/21 08:11:51;;;;;;;;;;;1.50;96.30;;;;;;5071279;28;19969;-64
2024/01/21 08:14:17;;;;;;;;;;;1.60;96.10;;;;;;5075628;28;20019;-64
2024/01/21 08:16:43;;;;;;;;;;;1.60;96.50;;;;;;5070155;28;19916;-64
2024/01/21 08:19:08;;;;;;;;;;;1.60;96.30;;;;;;5069561;28;20075;-65
2024/01/21 08:21:34;;;;;;;;;;;1.60;96.30;;;;;;5067228;28;20391;-65
2024/01/21 08:23:59;;;;;;;;;;;1.60;96.60;;;;;;5068779;28;20010;-64
2024/01/21 08:26:25;;;;;;;;;;;1.60;96.90;;;;;;5068517;28;19928;-65
2024/01/21 08:28:51;;;;;;;;;;;1.60;97.10;;;;;;5069094;28;19916;-65
2024/01/21 08:31:17;;;;;;;;;;;1.60;97.00;;;;;;5064499;28;19923;-65
2024/01/21 08:33:42;;;;;;;;;;;1.60;96.70;;;;;;5066978;28;20587;-65
2024/01/21 08:36:08;;;;;;;;;;;1.60;97.10;;;;;;5069905;28;19917;-65
2024/01/21 08:38:34;;;;;;;;;;;1.60;97.50;;;;;;5068775;28;20376;-65
2024/01/21 08:40:59;;;;;;;;;;;1.70;96.90;;;;;;5070511;28;19967;-64
2024/01/21 08:43:25;;;;;;;;;;;1.70;97.50;;;;;;5075379;28;19927;-64
2024/01/21 08:45:51;;;;;;;;;;;1.70;97.40;;;;;;5067003;28;19916;-65
2024/01/21 08:48:17;;;;;;;;;;;1.80;97.20;;;;;;5069961;28;19921;-65
2024/01/21 08:50:42;;;;;;;;;;;1.80;97.10;;;;;;5068135;28;19916;-64
2024/01/21 08:53:08;;;;;;;;;;;1.90;97.20;;;;;;5068618;28;20288;-64
2024/01/21 08:55:34;;;;;;;;;;;1.90;97.60;;;;;;5082523;28;19924;-64
2024/01/21 08:58:00;;;;;;;;;;;1.90;97.60;;;;;;5061525;28;20289;-64
2024/01/21 09:00:25;;;;;;;;;;;1.80;97.80;;;;;;5069844;28;20368;-64
2024/01/21 09:02:51;;;;;;;;;;;1.80;97.60;;;;;;5072334;28;19916;-64
2024/01/21 09:05:16;;;;;;;;;;;1.70;98.50;;;;;;5081949;28;19916;-65
2024/01/21 09:07:42;;;;;;;;;;;1.80;98.00;;;;;;5071292;28;19920;-64
2024/01/21 09:10:08;;;;;;;;;;;1.80;98.40;;;;;;5069022;28;19916;-64
2024/01/21 09:12:34;;;;;;;;;;;1.80;98.20;;;;;;5071564;28;20288;-64
2024/01/21 09:15:00;;;;;;;;;;;1.90;98.20;;;;;;5069550;28;19925;-64
2024/01/21 09:17:26;;;;;;;;;;;2.00;97.80;;;;;;5071424;28;20094;-64
2024/01/21 09:19:51;;;;;;;;;;;2.00;99.00;;;;;;5068962;28;19916;-65
2024/01/21 09:22:17;;;;;;;;;;;2.00;98.20;;;;;;5051606;28;19924;-64
2024/01/21 09:24:43;;;;;;;;;;;2.10;98.50;;;;;;5068384;28;19916;-64
2024/01/21 09:27:08;;;;;;;;;;;2.10;98.20;;;;;;5070836;28;20011;-65
2024/01/21 09:29:34;;;;;;;;;;;2.10;98.10;;;;;;5070696;28;19920;-64
2024/01/21 09:31:59;;;;;;;;;;;2.10;98.70;;;;;;5069911;28;19923;-65
2024/01/21 09:34:25;;;;;;;;;;;2.10;99.20;;;;;;5069617;28;19989;-64
2024/01/21 09:36:51;;;;;;;;;;;2.10;98.90;;;;;;5068440;28;19917;-64
2024/01/21 09:39:17;;;;;;;;;;;2.20;98.90;;;;;;5070214;28;19963;-64
2024/01/21 09:41:46;;;;;;;;;;;2.10;98.70;;;;;;5043574;28;20309;-64
2024/01/21 09:44:12;;;;;;;;;;;2.10;99.20;;;;;;5069303;28;19966;-64
2024/01/21 09:46:38;;;;;;;;;;;2.10;99.40;;;;;;5068240;28;19920;-64
2024/01/21 09:49:04;;;;;;;;;;;2.00;99.10;;;;;;5069169;28;19916;-64
2024/01/21 09:51:29;;;;;;;;;;;2.10;99.30;;;;;;5069876;28;19916;-65
2024/01/21 09:53:55;;;;;;;;;;;2.10;99.20;;;;;;5070678;28;19920;-65
2024/01/21 09:56:22;;;;;;;;;;;2.10;99.90;;;;;;5052595;28;20020;-65
2024/01/21 09:58:49;;;;;;;;;;;2.10;99.90;;;;;;5070517;28;19920;-65
2024/01/21 10:01:15;;;;;;;;;;;2.20;99.90;;;;;;5069311;28;19920;-65
2024/01/21 10:03:41;;;;;;;;;;;2.20;99.90;;;;;;5070299;28;19916;-65
2024/01/21 10:06:07;;;;;;;;;;;2.30;99.90;;;;;;5069892;28;20271;-65
2024/01/21 10:08:37;;;;;;;;;;;2.20;99.90;;;;;;5069580;28;20007;-65
2024/01/21 10:11:02;;;;;;;;;;;2.30;99.90;;;;;;5071533;28;19927;-65
2024/01/21 10:13:31;;;;;;;;;;;2.30;99.90;;;;;;5070237;28;20371;-64
2024/01/21 10:15:57;;;;;;;;;;;2.30;99.90;;;;;;5051276;28;19955;-64
2024/01/21 10:18:23;;;;;;;;;;;2.40;99.90;;;;;;5069448;28;19931;-65
2024/01/21 10:20:50;;;;;;;;;;;2.50;99.90;;;;;;5070261;28;19920;-65
2024/01/21 10:23:16;;;;;;;;;;;2.60;99.90;;;;;;5069426;28;19925;-65
2024/01/21 10:25:43;;;;;;;;;;;2.60;99.90;;;;;;5065016;28;19924;-65
2024/01/21 10:28:12;;;;;;;;;;;2.50;99.90;;;;;;5067485;28;19935;-65
2024/01/21 10:30:38;;;;;;;;;;;2.50;99.90;;;;;;5069836;28;19943;-65
2024/01/21 10:33:04;;;;;;;;;;;2.50;99.90;;;;;;5069200;28;19923;-65
2024/01/21 10:35:30;;;;;;;;;;;2.50;99.90;;;;;;5079444;28;19916;-65
2024/01/21 10:37:56;;;;;;;;;;;2.50;99.90;;;;;;5074672;28;19924;-65
2024/01/21 10:40:22;;;;;;;;;;;2.50;99.90;;;;;;5068639;28;19923;-65
2024/01/21 10:42:53;;;;;;;;;;;2.50;99.90;;;;;;5065306;28;19916;-64
2024/01/21 10:45:23;;;;;;;;;;;2.50;99.90;;;;;;5071672;28;19917;-65
2024/01/21 10:47:49;;;;;;;;;;;2.50;99.90;;;;;;5072274;28;20016;-65
2024/01/21 10:50:15;;;;;;;;;;;2.50;99.90;;;;;;5072975;28;19982;-65
2024/01/21 10:52:44;;;;;;;;;;;2.50;99.90;;;;;;5072615;28;20130;-65
2024/01/21 10:55:10;;;;;;;;;;;2.50;99.90;;;;;;5073903;28;19934;-65
2024/01/21 10:57:36;;;;;;;;;;;2.60;99.90;;;;;;5072789;28;20373;-65
2024/01/21 11:00:03;;;;;;;;;;;2.60;99.90;;;;;;5070765;28;19916;-65
2024/01/21 11:02:30;;;;;;;;;;;2.60;99.90;;;;;;5082426;28;20088;-65
2024/01/21 11:04:56;;;;;;;;;;;2.60;99.90;;;;;;5071919;28;20373;-65
2024/01/21 11:07:23;;;;;;;;;;;2.70;99.90;;;;;;5073031;28;19973;-65
2024/01/21 11:09:49;;;;;;;;;;;2.70;99.90;;;;;;5073052;28;19931;-64
2024/01/21 11:12:15;;;;;;;;;;;2.60;99.90;;;;;;5072401;28;19920;-65
2024/01/21 11:14:42;;;;;;;;;;;2.60;99.90;;;;;;5073631;28;19924;-65
2024/01/21 11:17:12;;;;;;;;;;;2.60;99.90;;;;;;5072084;28;19923;-65
2024/01/21 11:19:50;;;;;;;;;;;2.70;99.90;;;;;;5072452;28;19925;-65
2024/01/21 11:22:17;;;;;;;;;;;2.60;99.90;;;;;;5063448;28;20011;-65
2024/01/21 11:24:45;;;;;;;;;;;2.70;99.90;;;;;;5073260;28;20088;-65
2024/01/21 11:27:18;;;;;;;;;;;2.80;99.90;;;;;;5073195;28;19928;-65
2024/01/21 11:29:44;;;;;;;;;;;2.80;99.90;;;;;;5072093;28;20425;-65
2024/01/21 11:32:10;;;;;;;;;;;2.90;99.90;;;;;;5073238;28;19922;-65
2024/01/21 11:34:38;;;;;;;;;;;2.90;99.90;;;;;;5073597;28;19917;-65
2024/01/21 11:37:12;;;;;;;;;;;2.90;99.90;;;;;;5071541;28;20443;-65
2024/01/21 11:39:38;;;;;;;;;;;2.80;99.90;;;;;;5066014;28;20007;-65
2024/01/21 11:42:05;;;;;;;;;;;2.80;99.90;;;;;;5072084;28;19931;-65
2024/01/21 11:44:31;;;;;;;;;;;2.70;99.90;;;;;;5072974;28;19924;-65
2024/01/21 11:46:58;;;;;;;;;;;2.70;99.90;;;;;;5071111;28;19920;-65
2024/01/21 11:49:24;;;;;;;;;;;2.60;99.90;;;;;;5052301;28;19923;-66
2024/01/21 11:51:50;;;;;;;;;;;2.60;99.90;;;;;;5072814;28;19920;-65
2024/01/21 11:54:19;;;;;;;;;;;2.50;99.90;;;;;;5073094;28;19927;-65
2024/01/21 11:56:45;;;;;;;;;;;2.50;99.90;;;;;;5071879;28;19989;-65
2024/01/21 11:59:11;;;;;;;;;;;2.50;99.90;;;;;;5071375;28;20378;-65
2024/01/21 12:01:37;;;;;;;;;;;2.50;99.90;;;;;;5054572;28;20305;-65
2024/01/21 12:04:03;;;;;;;;;;;2.50;99.90;;;;;;5072631;28;20053;-65
2024/01/21 12:06:31;;;;;;;;;;;2.50;99.90;;;;;;5071249;28;19920;-66
2024/01/21 12:08:58;;;;;;;;;;;2.50;99.90;;;;;;5072688;28;19916;-66
2024/01/21 12:11:23;;;;;;;;;;;2.50;99.90;;;;;;5072263;28;20304;-66
2024/01/21 12:13:49;;;;;;;;;;;2.50;99.90;;;;;;5071715;28;19969;-66
2024/01/21 12:16:16;;;;;;;;;;;2.60;99.90;;;;;;5071632;28;19951;-65
2024/01/21 12:18:43;;;;;;;;;;;2.60;99.90;;;;;;5071017;28;20207;-66
2024/01/21 12:21:15;;;;;;;;;;;2.70;99.90;;;;;;5054426;28;19923;-66
2024/01/21 12:23:42;;;;;;;;;;;2.70;99.90;;;;;;5072323;28;19917;-65
2024/01/21 12:26:08;;;;;;;;;;;2.70;99.90;;;;;;5070496;28;19935;-65
2024/01/21 12:28:34;;;;;;;;;;;2.80;99.90;;;;;;5053727;28;19924;-65
2024/01/21 12:31:00;;;;;;;;;;;2.90;99.90;;;;;;5072496;28;19917;-65
2024/01/21 12:33:26;;;;;;;;;;;2.90;99.90;;;;;;5065867;28;19916;-65
2024/01/21 12:35:52;;;;;;;;;;;3.00;99.90;;;;;;5070653;28;20019;-65
2024/01/21 12:38:18;;;;;;;;;;;3.00;99.90;;;;;;5072177;28;20300;-65
2024/01/21 12:40:44;;;;;;;;;;;3.00;99.90;;;;;;5072090;28;19920;-65
2024/01/21 12:43:10;;;;;;;;;;;3.10;99.90;;;;;;5068054;28;19922;-65
2024/01/21 12:45:36;;;;;;;;;;;3.10;99.90;;;;;;5072111;28;20218;-65
2024/01/21 12:48:02;;;;;;;;;;;3.10;99.90;;;;;;5071887;28;20285;-66
2024/01/21 12:50:29;;;;;;;;;;;3.10;99.90;;;;;;5071779;28;20223;-65
2024/01/21 12:52:55;;;;;;;;;;;3.20;99.90;;;;;;5069388;28;19968;-65
2024/01/21 12:55:22;;;;;;;;;;;3.20;99.90;;;;;;5071912;28;20341;-65
2024/01/21 12:57:47;;;;;;;;;;;3.30;99.90;;;;;;5053979;28;19916;-66
2024/01/21 13:00:13;;;;;;;;;;;3.20;99.90;;;;;;5069298;28;19917;-66
2024/01/21 13:02:39;;;;;;;;;;;3.20;99.90;;;;;;5068685;28;19916;-65
2024/01/21 13:05:05;;;;;;;;;;;3.20;99.90;;;;;;5055352;28;19927;-65
2024/01/21 13:07:31;;;;;;;;;;;3.20;99.90;;;;;;5079518;28;19921;-65
2024/01/21 13:09:57;;;;;;;;;;;3.30;99.90;;;;;;5070995;28;19943;-65
2024/01/21 13:12:23;;;;;;;;;;;3.30;99.90;;;;;;5068427;28;19916;-66
2024/01/21 13:14:49;;;;;;;;;;;3.20;99.90;;;;;;5070340;28;19923;-66
2024/01/21 13:17:14;;;;;;;;;;;3.30;99.90;;;;;;5064533;28;19920;-66
2024/01/21 13:19:40;;;;;;;;;;;3.30;99.90;;;;;;5070432;28;19995;-66
2024/01/21 13:22:06;;;;;;;;;;;3.40;99.90;;;;;;5044012;28;19924;-66
2024/01/21 13:24:33;;;;;;;;;;;3.40;99.90;;;;;;5057453;28;20148;-66
2024/01/21 13:27:07;;;;;;;;;;;3.50;99.90;;;;;;5068045;28;19920;-66
2024/01/21 13:32:17;;;;;;;;;;;3.40;99.90;;;;;;5070839;28;19920;-66
2024/01/21 13:34:43;;;;;;;;;;;3.50;99.90;;;;;;5080795;28;19923;-66
2024/01/21 13:37:12;;;;;;;;;;;3.50;99.90;;;;;;5071145;28;19916;-66
2024/01/21 13:39:41;;;;;;;;;;;3.50;99.90;;;;;;5068464;28;21690;-66
2024/01/21 13:42:07;;;;;;;;;;;3.50;99.90;;;;;;5049984;28;19920;-66
2024/01/21 13:44:32;;;;;;;;;;;3.50;99.90;;;;;;5069507;28;20258;-66
2024/01/21 13:46:58;;;;;;;;;;;3.50;99.90;;;;;;5065710;28;20312;-66
2024/01/21 13:49:24;;;;;;;;;;;3.50;99.90;;;;;;5067743;28;19989;-66
2024/01/21 13:51:50;;;;;;;;;;;3.50;99.90;;;;;;5045775;28;20385;-66
2024/01/21 13:54:16;;;;;;;;;;;3.60;99.90;;;;;;5067950;28;19916;-66
2024/01/21 13:56:41;;;;;;;;;;;3.60;99.90;;;;;;5063108;28;20344;-66
2024/01/21 13:59:07;;;;;;;;;;;3.60;99.90;;;;;;5067014;28;19916;-66
2024/01/21 14:01:34;;;;;;;;;;;3.60;99.90;;;;;;5068428;28;19917;-65
2024/01/21 14:04:01;;;;;;;;;;;3.60;99.90;;;;;;5069301;28;19930;-66
2024/01/21 14:06:26;;;;;;;;;;;3.60;99.90;;;;;;5056970;28;20240;-66
2024/01/21 14:08:52;;;;;;;;;;;3.60;99.90;;;;;;5071408;28;20421;-66
2024/01/21 14:11:18;;;;;;;;;;;3.60;99.90;;;;;;5075913;28;20297;-66
2024/01/21 14:13:43;;;;;;;;;;;3.60;99.90;;;;;;5057810;28;19999;-66
2024/01/21 14:16:09;;;;;;;;;;;3.50;99.90;;;;;;5070426;28;19970;-66
2024/01/21 14:18:34;;;;;;;;;;;3.50;99.90;;;;;;5073038;28;19921;-66
2024/01/21 14:21:00;;;;;;;;;;;3.60;99.90;;;;;;5066430;28;19928;-66
2024/01/21 14:23:26;;;;;;;;;;;3.50;99.90;;;;;;5072277;28;20431;-66